createdAt,value
2023-03-26T00:00:55.628Z,9.10
2023-03-26T00:03:45.097Z,9.10
2023-03-26T00:06:36.675Z,9.10
2023-03-26T00:09:23.273Z,9.10
2023-03-26T00:12:14.129Z,9.10
2023-03-26T00:15:02.480Z,9.20
2023-03-26T00:17:49.279Z,9.20
2023-03-26T00:20:35.733Z,9.30
2023-03-26T00:23:22.803Z,9.20
2023-03-26T00:26:12.863Z,9.20
2023-03-26T00:29:00.758Z,9.20
2023-03-26T00:31:48.617Z,9.30
2023-03-26T00:34:35.410Z,9.30
2023-03-26T00:37:26.281Z,9.30
2023-03-26T00:40:13.655Z,9.10
2023-03-26T00:43:02.265Z,9.20
2023-03-26T00:45:50.059Z,9.20
2023-03-26T00:48:45.138Z,9.20
2023-03-26T00:51:33.920Z,9.10
2023-03-26T00:54:20.541Z,9.20
2023-03-26T00:57:06.990Z,9.20
2023-03-26T00:59:53.740Z,9.20
2023-03-26T01:02:40.757Z,9.20
2023-03-26T01:05:48.804Z,9.20
2023-03-26T01:08:38.161Z,9.20
2023-03-26T01:11:27.825Z,9.20
2023-03-26T01:14:17.552Z,9.20
2023-03-26T01:17:07.789Z,9.30
2023-03-26T01:20:01.456Z,9.20
2023-03-26T01:22:53.254Z,9.20
2023-03-26T01:25:47.776Z,9.20
2023-03-26T01:28:37.075Z,9.20
2023-03-26T01:31:31.321Z,9.30
2023-03-26T01:34:24.244Z,9.20
2023-03-26T01:37:20.948Z,9.20
2023-03-26T01:40:15.123Z,9.10
2023-03-26T01:43:11.551Z,9.10
2023-03-26T01:46:00.939Z,9.00
2023-03-26T01:48:48.412Z,8.90
2023-03-26T01:51:37.473Z,8.90
2023-03-26T01:54:28.034Z,8.90
2023-03-26T01:57:21.551Z,8.80
2023-03-26T02:00:23.375Z,8.80
2023-03-26T02:03:22.868Z,8.70
2023-03-26T02:06:18.236Z,8.60
2023-03-26T02:09:09.042Z,8.60
2023-03-26T02:11:56.601Z,8.60
2023-03-26T02:14:45.451Z,8.70
2023-03-26T02:17:33.294Z,8.70
2023-03-26T02:20:23.774Z,8.60
2023-03-26T02:23:10.570Z,8.60
2023-03-26T02:25:57.106Z,8.70
2023-03-26T02:28:43.933Z,8.70
2023-03-26T02:31:30.606Z,8.80
2023-03-26T02:34:18.513Z,8.80
2023-03-26T02:37:05.258Z,8.80
2023-03-26T02:39:51.976Z,8.80
2023-03-26T02:42:38.723Z,8.80
2023-03-26T02:45:25.617Z,8.80
2023-03-26T02:48:12.312Z,8.90
2023-03-26T02:51:00.096Z,8.90
2023-03-26T02:53:47.416Z,8.80
2023-03-26T02:56:34.584Z,8.70
2023-03-26T02:59:21.166Z,8.60
2023-03-26T03:02:07.736Z,8.50
2023-03-26T03:05:01.601Z,8.40
2023-03-26T03:07:52.377Z,8.30
2023-03-26T03:10:39.474Z,8.30
2023-03-26T03:13:26.429Z,8.20
2023-03-26T03:16:12.936Z,8.10
2023-03-26T03:19:01.783Z,8.20
2023-03-26T03:21:48.651Z,8.20
2023-03-26T03:24:36.549Z,8.10
2023-03-26T03:27:23.825Z,8.00
2023-03-26T03:30:14.447Z,8.00
2023-03-26T03:33:03.557Z,8.10
2023-03-26T03:35:51.062Z,8.00
2023-03-26T03:38:38.100Z,8.00
2023-03-26T03:41:26.250Z,7.90
2023-03-26T03:44:12.977Z,7.90
2023-03-26T03:46:59.859Z,7.90
2023-03-26T03:49:46.574Z,7.90
2023-03-26T03:52:33.240Z,7.90
2023-03-26T03:55:20.285Z,7.80
2023-03-26T03:58:09.253Z,7.90
2023-03-26T04:01:00.745Z,7.90
2023-03-26T04:03:47.311Z,7.80
2023-03-26T04:06:34.210Z,7.80
2023-03-26T04:09:20.805Z,7.80
2023-03-26T04:12:07.654Z,7.80
2023-03-26T04:14:55.716Z,7.80
2023-03-26T04:17:43.903Z,7.80
2023-03-26T04:20:30.282Z,7.80
2023-03-26T04:23:18.207Z,7.70
2023-03-26T04:26:10.404Z,7.70
2023-03-26T04:29:00.887Z,7.70
2023-03-26T04:31:50.459Z,7.70
2023-03-26T04:34:37.133Z,7.70
2023-03-26T04:37:32.360Z,7.70
2023-03-26T04:40:21.873Z,7.70
2023-03-26T04:43:13.190Z,7.80
2023-03-26T04:46:03.275Z,7.90
2023-03-26T04:48:52.077Z,7.90
2023-03-26T04:51:41.764Z,8.10
2023-03-26T04:54:28.415Z,8.20
2023-03-26T04:57:19.899Z,8.30
2023-03-26T05:00:14.798Z,8.30
2023-03-26T05:03:01.736Z,8.40
2023-03-26T05:05:50.581Z,8.40
2023-03-26T05:08:37.329Z,8.50
2023-03-26T05:11:23.856Z,8.50
2023-03-26T05:14:10.569Z,8.50
2023-03-26T05:16:57.597Z,8.50
2023-03-26T05:19:44.427Z,8.50
2023-03-26T05:22:32.190Z,8.50
2023-03-26T05:25:19.124Z,8.50
2023-03-26T05:28:06.248Z,8.50
2023-03-26T05:30:53.825Z,8.60
2023-03-26T05:33:40.873Z,8.70
2023-03-26T05:36:28.337Z,8.80
2023-03-26T05:39:16.554Z,8.90
2023-03-26T05:42:03.543Z,9.00
2023-03-26T05:44:49.940Z,9.10
2023-03-26T05:47:36.675Z,9.20
2023-03-26T05:50:23.977Z,9.20
2023-03-26T05:53:10.500Z,9.30
2023-03-26T05:55:58.745Z,9.40
2023-03-26T05:58:45.252Z,9.40
2023-03-26T06:01:31.836Z,9.40
2023-03-26T06:04:19.069Z,9.40
2023-03-26T06:07:10.000Z,9.40
2023-03-26T06:09:56.880Z,9.40
2023-03-26T06:12:44.916Z,9.50
2023-03-26T06:15:31.493Z,9.60
2023-03-26T06:18:18.746Z,9.50
2023-03-26T06:21:06.262Z,9.60
2023-03-26T06:23:53.108Z,9.50
2023-03-26T06:26:41.647Z,9.70
2023-03-26T06:29:29.898Z,9.80
2023-03-26T06:32:19.978Z,9.80
2023-03-26T06:35:07.571Z,9.90
2023-03-26T06:37:54.261Z,10.00
2023-03-26T06:40:40.855Z,10.10
2023-03-26T06:43:27.231Z,10.50
2023-03-26T06:46:15.066Z,11.00
2023-03-26T06:49:01.382Z,11.60
2023-03-26T06:51:47.767Z,11.90
2023-03-26T06:54:34.221Z,12.20
2023-03-26T06:57:20.969Z,12.20
2023-03-26T07:00:09.661Z,12.20
2023-03-26T07:02:57.705Z,12.20
2023-03-26T07:05:44.523Z,12.30
2023-03-26T07:08:31.892Z,12.50
2023-03-26T07:11:20.657Z,12.70
2023-03-26T07:14:07.353Z,12.70
2023-03-26T07:16:53.879Z,12.60
2023-03-26T07:19:41.566Z,12.80
2023-03-26T07:22:28.440Z,12.80
2023-03-26T07:25:16.470Z,13.00
2023-03-26T07:28:12.118Z,13.10
2023-03-26T07:31:06.411Z,13.20
2023-03-26T07:34:02.377Z,13.30
2023-03-26T07:36:55.024Z,13.60
2023-03-26T07:39:47.617Z,14.00
2023-03-26T07:42:46.666Z,14.00
2023-03-26T07:45:40.240Z,13.90
2023-03-26T07:48:30.533Z,13.70
2023-03-26T07:51:20.146Z,13.50
2023-03-26T07:54:11.302Z,13.30
2023-03-26T07:57:02.525Z,13.30
2023-03-26T07:59:55.371Z,13.10
2023-03-26T08:03:05.768Z,12.80
2023-03-26T08:06:01.429Z,12.70
2023-03-26T08:08:54.774Z,12.40
2023-03-26T08:11:50.774Z,12.40
2023-03-26T08:14:50.682Z,12.30
2023-03-26T08:17:43.588Z,12.30
2023-03-26T08:20:38.112Z,12.40
2023-03-26T08:23:30.673Z,12.80
2023-03-26T08:26:27.375Z,13.40
2023-03-26T08:29:23.168Z,13.80
2023-03-26T08:32:15.474Z,14.00
2023-03-26T08:35:03.954Z,14.00
2023-03-26T08:37:51.856Z,13.80
2023-03-26T08:41:25.160Z,13.80
2023-03-26T08:44:40.680Z,14.00
2023-03-26T08:48:12.009Z,14.00
2023-03-26T08:51:32.857Z,14.20
2023-03-26T08:55:04.623Z,14.30
2023-03-26T08:58:37.672Z,14.20
2023-03-26T09:01:57.242Z,14.10
2023-03-26T09:05:17.857Z,14.10
2023-03-26T09:08:54.190Z,14.10
2023-03-26T09:12:13.966Z,14.40
2023-03-26T09:15:39.474Z,14.60
2023-03-26T09:18:59.378Z,15.00
2023-03-26T09:22:18.913Z,15.20
2023-03-26T09:25:48.633Z,15.40
2023-03-26T09:29:18.197Z,15.70
2023-03-26T09:32:23.038Z,15.70
2023-03-26T09:35:39.571Z,15.80
2023-03-26T09:38:43.732Z,15.70
2023-03-26T09:41:44.263Z,15.80
2023-03-26T09:44:48.341Z,15.70
2023-03-26T09:48:09.201Z,15.40
2023-03-26T09:51:13.882Z,15.40
2023-03-26T09:54:20.378Z,15.20
2023-03-26T09:57:16.734Z,15.00
2023-03-26T10:00:25.386Z,15.10
2023-03-26T10:03:30.526Z,15.10
2023-03-26T10:06:37.180Z,15.40
2023-03-26T10:09:37.001Z,15.30
2023-03-26T10:12:32.812Z,15.30
2023-03-26T10:15:32.141Z,15.30
2023-03-26T10:18:29.344Z,15.60
2023-03-26T10:21:28.588Z,15.90
2023-03-26T10:24:27.099Z,16.30
2023-03-26T10:27:25.034Z,16.60
2023-03-26T10:30:37.747Z,16.60
2023-03-26T10:33:35.152Z,16.40
2023-03-26T10:36:29.905Z,16.60
2023-03-26T10:39:39.432Z,16.90
2023-03-26T10:42:47.203Z,17.00
2023-03-26T10:45:48.705Z,17.10
2023-03-26T10:48:50.912Z,17.10
2023-03-26T10:51:51.212Z,17.20
2023-03-26T10:54:51.032Z,17.30
2023-03-26T10:57:45.267Z,17.30
2023-03-26T11:00:38.041Z,17.30
2023-03-26T11:03:52.834Z,17.10
2023-03-26T11:06:45.743Z,17.30
2023-03-26T11:09:43.811Z,17.20
2023-03-26T11:12:34.822Z,17.10
2023-03-26T11:15:29.325Z,16.80
2023-03-26T11:18:20.051Z,16.60
2023-03-26T11:21:19.371Z,16.50
2023-03-26T11:24:31.376Z,16.40
2023-03-26T11:27:27.219Z,16.30
2023-03-26T11:30:23.176Z,16.30
2023-03-26T11:33:16.753Z,16.30
2023-03-26T11:36:07.084Z,16.30
2023-03-26T11:38:57.522Z,16.10
2023-03-26T11:41:44.740Z,15.80
2023-03-26T11:44:36.935Z,15.60
2023-03-26T11:47:31.365Z,15.40
2023-03-26T11:50:22.793Z,15.20
2023-03-26T11:53:14.616Z,15.20
2023-03-26T11:56:05.266Z,15.20
2023-03-26T11:58:58.098Z,15.10
2023-03-26T12:01:51.379Z,15.00
2023-03-26T12:04:40.601Z,15.10
2023-03-26T12:07:34.529Z,15.10
2023-03-26T12:10:31.206Z,15.10
2023-03-26T12:13:30.939Z,15.20
2023-03-26T12:16:38.034Z,15.30
2023-03-26T12:19:28.714Z,15.20
2023-03-26T12:22:29.998Z,15.20
2023-03-26T12:25:19.037Z,15.20
2023-03-26T12:28:17.371Z,15.40
2023-03-26T12:31:07.408Z,15.50
2023-03-26T12:34:08.177Z,15.50
2023-03-26T12:36:59.947Z,15.40
2023-03-26T12:40:09.767Z,15.50
2023-03-26T12:44:46.086Z,15.30
2023-03-26T12:46:20.654Z,15.30
2023-03-26T12:49:09.958Z,15.20
2023-03-26T12:52:06.715Z,15.00
2023-03-26T12:55:02.360Z,14.90
2023-03-26T12:58:13.679Z,14.90
2023-03-26T13:01:06.546Z,14.80
2023-03-26T13:04:26.635Z,14.90
2023-03-26T13:07:25.465Z,14.80
2023-03-26T13:10:49.361Z,14.70
2023-03-26T13:14:01.886Z,14.70
2023-03-26T13:16:55.508Z,14.80
2023-03-26T13:19:50.646Z,14.90
2023-03-26T13:22:47.276Z,14.80
2023-03-26T13:25:43.790Z,14.60
2023-03-26T13:28:41.997Z,14.50
2023-03-26T13:31:35.080Z,14.20
2023-03-26T13:34:32.250Z,14.00
2023-03-26T13:37:26.994Z,14.00
2023-03-26T13:40:25.909Z,13.80
2023-03-26T13:43:26.103Z,13.70
2023-03-26T13:46:23.795Z,13.50
2023-03-26T13:49:15.436Z,13.40
2023-03-26T13:52:05.764Z,13.30
2023-03-26T13:54:58.756Z,13.20
2023-03-26T13:57:53.488Z,13.20
2023-03-26T14:00:55.446Z,13.00
2023-03-26T14:03:52.107Z,13.00
2023-03-26T14:06:57.139Z,12.80
2023-03-26T14:09:48.305Z,12.80
2023-03-26T14:12:51.457Z,12.70
2023-03-26T14:15:49.918Z,12.70
2023-03-26T14:18:43.732Z,12.60
2023-03-26T14:22:01.320Z,12.60
2023-03-26T14:25:02.739Z,12.50
2023-03-26T14:28:11.853Z,12.40
2023-03-26T14:31:06.105Z,12.30
2023-03-26T14:34:22.287Z,12.10
2023-03-26T14:37:29.140Z,12.00
2023-03-26T14:40:29.557Z,11.90
2023-03-26T14:43:49.287Z,11.80
2023-03-26T14:46:46.382Z,11.80
2023-03-26T14:49:53.516Z,11.80
2023-03-26T14:52:48.825Z,11.80
2023-03-26T14:56:23.471Z,11.80
2023-03-26T14:59:51.023Z,11.70
2023-03-26T15:03:07.642Z,11.70
2023-03-26T15:06:31.822Z,11.60
2023-03-26T15:09:57.964Z,11.60
2023-03-26T15:13:10.045Z,11.60
2023-03-26T15:16:39.650Z,11.70
2023-03-26T15:20:05.171Z,11.60
2023-03-26T15:23:19.290Z,11.60
2023-03-26T15:26:45.383Z,11.60
2023-03-26T15:30:11.624Z,11.50
2023-03-26T15:33:19.365Z,11.60
2023-03-26T15:36:47.644Z,11.60
2023-03-26T15:40:00.082Z,11.60
2023-03-26T15:42:55.465Z,11.50
2023-03-26T15:45:46.013Z,11.60
2023-03-26T15:48:53.530Z,11.60
2023-03-26T15:51:50.038Z,11.60
2023-03-26T15:54:52.093Z,11.60
2023-03-26T15:57:43.926Z,11.50
2023-03-26T16:00:34.883Z,11.40
2023-03-26T16:03:30.824Z,11.30
2023-03-26T16:06:49.493Z,11.30
2023-03-26T16:09:59.891Z,11.30
2023-03-26T16:12:54.357Z,11.20
2023-03-26T16:15:42.845Z,11.30
2023-03-26T16:18:37.188Z,11.20
2023-03-26T16:21:46.351Z,11.20
2023-03-26T16:24:37.172Z,11.20
2023-03-26T16:27:30.153Z,11.20
2023-03-26T16:30:28.019Z,11.10
2023-03-26T16:33:16.474Z,11.10
2023-03-26T16:36:18.340Z,11.00
2023-03-26T16:39:24.106Z,10.90
2023-03-26T16:42:39.252Z,10.90
2023-03-26T16:45:35.092Z,10.60
2023-03-26T16:48:28.826Z,10.70
2023-03-26T16:51:23.993Z,10.70
2023-03-26T16:54:18.467Z,10.70
2023-03-26T16:57:17.284Z,10.50
2023-03-26T17:00:31.341Z,10.50
2023-03-26T17:03:33.863Z,10.50
2023-03-26T17:06:37.497Z,10.60
2023-03-26T17:09:30.597Z,10.50
2023-03-26T17:12:24.717Z,10.20
2023-03-26T17:15:35.244Z,9.90
2023-03-26T17:18:36.713Z,10.00
2023-03-26T17:21:46.214Z,10.10
2023-03-26T17:24:46.581Z,10.00
2023-03-26T17:27:44.443Z,10.00
2023-03-26T17:30:45.518Z,10.00
2023-03-26T17:33:36.753Z,10.00
2023-03-26T17:36:42.426Z,10.00
2023-03-26T17:40:12.208Z,10.00
2023-03-26T17:43:03.779Z,10.00
2023-03-26T17:46:03.733Z,10.00
2023-03-26T17:49:00.348Z,10.00
2023-03-26T17:51:51.575Z,10.00
2023-03-26T17:54:44.036Z,10.00
2023-03-26T17:57:40.062Z,9.80
2023-03-26T18:00:31.092Z,9.70
2023-03-26T18:03:22.195Z,9.70
2023-03-26T18:06:14.749Z,9.70
2023-03-26T18:09:13.191Z,9.80
2023-03-26T18:12:19.087Z,9.80
2023-03-26T18:15:22.658Z,9.80
2023-03-26T18:18:16.419Z,9.80
2023-03-26T18:21:07.138Z,9.70
2023-03-26T18:24:00.103Z,9.70
2023-03-26T18:26:51.733Z,9.80
2023-03-26T18:29:38.767Z,9.70
2023-03-26T18:32:30.868Z,9.70
2023-03-26T18:35:21.035Z,9.40
2023-03-26T18:38:07.604Z,9.20
2023-03-26T18:40:56.831Z,9.00
2023-03-26T18:43:44.068Z,8.80
2023-03-26T18:46:32.734Z,8.70
2023-03-26T18:49:19.168Z,8.70
2023-03-26T18:52:05.850Z,8.60
2023-03-26T18:54:55.605Z,8.60
2023-03-26T18:57:44.183Z,8.50
2023-03-26T19:00:30.721Z,8.60
2023-03-26T19:03:22.134Z,8.50
2023-03-26T19:06:10.943Z,8.50
2023-03-26T19:08:58.595Z,8.40
2023-03-26T19:11:45.661Z,8.20
2023-03-26T19:14:36.591Z,8.10
2023-03-26T19:17:26.570Z,8.10
2023-03-26T19:20:18.743Z,8.10
2023-03-26T19:23:09.144Z,8.10
2023-03-26T19:25:57.076Z,8.10
2023-03-26T19:28:49.275Z,8.00
2023-03-26T19:31:38.928Z,8.10
2023-03-26T19:34:33.303Z,8.10
2023-03-26T19:37:22.820Z,8.10
2023-03-26T19:40:16.153Z,8.10
2023-03-26T19:43:04.472Z,8.20
2023-03-26T19:46:00.564Z,8.30
2023-03-26T19:48:51.780Z,8.40
2023-03-26T19:51:41.888Z,8.40
2023-03-26T19:54:30.303Z,8.50
2023-03-26T19:57:18.437Z,8.70
2023-03-26T20:00:13.334Z,8.70
2023-03-26T20:03:00.030Z,8.70
2023-03-26T20:05:47.642Z,8.70
2023-03-26T20:08:34.018Z,8.60
2023-03-26T20:11:22.807Z,8.70
2023-03-26T20:14:14.569Z,8.70
2023-03-26T20:17:01.403Z,8.80
2023-03-26T20:19:48.633Z,8.80
2023-03-26T20:22:36.884Z,8.80
2023-03-26T20:25:30.188Z,8.70
2023-03-26T20:28:20.038Z,8.40
2023-03-26T20:31:08.181Z,8.40
2023-03-26T20:33:56.347Z,8.40
2023-03-26T20:36:42.872Z,8.40
2023-03-26T20:39:31.122Z,8.20
2023-03-26T20:42:17.817Z,8.30
2023-03-26T20:45:04.674Z,8.20
2023-03-26T20:47:52.930Z,8.00
2023-03-26T20:51:01.611Z,7.80
2023-03-26T20:53:50.689Z,7.70
2023-03-26T20:56:41.577Z,7.60
2023-03-26T20:59:29.296Z,7.60
2023-03-26T21:02:15.740Z,7.60
2023-03-26T21:05:02.833Z,7.60
2023-03-26T21:07:49.911Z,7.60
2023-03-26T21:10:37.095Z,7.60
2023-03-26T21:13:37.634Z,7.50
2023-03-26T21:16:24.940Z,7.40
2023-03-26T21:19:12.270Z,7.40
2023-03-26T21:22:11.239Z,7.40
2023-03-26T21:25:05.571Z,7.40
2023-03-26T21:28:00.132Z,7.50
2023-03-26T21:30:48.575Z,7.50
2023-03-26T21:33:36.185Z,7.50
2023-03-26T21:36:24.225Z,7.50
2023-03-26T21:39:11.849Z,7.60
2023-03-26T21:42:05.455Z,7.70
2023-03-26T21:44:53.150Z,7.70
2023-03-26T21:47:41.801Z,7.70
2023-03-26T21:50:29.248Z,7.70
2023-03-26T21:53:16.859Z,7.60
2023-03-26T21:56:17.296Z,7.70
2023-03-26T21:59:12.531Z,7.70
2023-03-26T22:02:07.259Z,7.70
2023-03-26T22:04:58.563Z,7.60
2023-03-26T22:07:53.472Z,7.40
2023-03-26T22:10:39.968Z,7.40
2023-03-26T22:13:27.193Z,7.20
2023-03-26T22:16:13.725Z,7.20
2023-03-26T22:19:01.051Z,7.10
2023-03-26T22:21:50.723Z,7.00
2023-03-26T22:24:40.284Z,7.00
2023-03-26T22:27:27.133Z,6.90
2023-03-26T22:30:14.205Z,6.70
2023-03-26T22:33:00.877Z,6.70
2023-03-26T22:35:49.758Z,6.60
2023-03-26T22:38:37.896Z,6.50
2023-03-26T22:41:24.861Z,6.40
2023-03-26T22:44:19.956Z,6.30
2023-03-26T22:47:08.212Z,6.20
2023-03-26T22:49:54.923Z,6.30
2023-03-26T22:52:41.921Z,6.30
2023-03-26T22:55:29.962Z,6.30
2023-03-26T22:58:16.833Z,6.40
2023-03-26T23:01:07.886Z,6.50
2023-03-26T23:03:55.580Z,6.60
2023-03-26T23:06:41.960Z,6.60
2023-03-26T23:09:28.474Z,6.70
2023-03-26T23:12:16.394Z,6.80
2023-03-26T23:15:05.074Z,6.90
2023-03-26T23:17:54.592Z,6.80
2023-03-26T23:20:42.776Z,6.80
2023-03-26T23:23:31.053Z,6.70
2023-03-26T23:26:17.947Z,6.60
2023-03-26T23:29:06.215Z,6.60
2023-03-26T23:31:54.003Z,6.60
2023-03-26T23:34:51.963Z,6.70
2023-03-26T23:37:42.510Z,6.70
2023-03-26T23:40:29.426Z,6.70
2023-03-26T23:43:16.262Z,6.50
2023-03-26T23:46:05.309Z,6.60
2023-03-26T23:48:52.836Z,6.60
2023-03-26T23:51:40.013Z,6.60
2023-03-26T23:54:26.688Z,6.60
2023-03-26T23:57:13.076Z,6.50
2023-03-26T23:59:59.933Z,6.50
